sensor_id;sensor_type;location;lat;lon;timestamp;temperature;humidity
23377;DHT22;14353;46.070;13.222;2023-05-07T00:00:39;24.70;50.50
23377;DHT22;14353;46.070;13.222;2023-05-07T00:03:05;24.60;50.50
23377;DHT22;14353;46.070;13.222;2023-05-07T00:05:32;24.70;51.20
23377;DHT22;14353;46.070;13.222;2023-05-07T00:07:58;24.60;50.50
23377;DHT22;14353;46.070;13.222;2023-05-07T00:10:23;24.60;50.50
23377;DHT22;14353;46.070;13.222;2023-05-07T00:12:49;24.70;50.50
23377;DHT22;14353;46.070;13.222;2023-05-07T00:15:15;24.60;50.50
23377;DHT22;14353;46.070;13.222;2023-05-07T00:17:40;24.60;50.50
23377;DHT22;14353;46.070;13.222;2023-05-07T00:20:06;24.60;50.50
23377;DHT22;14353;46.070;13.222;2023-05-07T00:22:35;24.60;50.50
23377;DHT22;14353;46.070;13.222;2023-05-07T00:25:01;24.60;50.50
23377;DHT22;14353;46.070;13.222;2023-05-07T00:27:26;24.60;50.50
23377;DHT22;14353;46.070;13.222;2023-05-07T00:29:52;24.60;50.50
23377;DHT22;14353;46.070;13.222;2023-05-07T00:32:18;24.60;50.50
23377;DHT22;14353;46.070;13.222;2023-05-07T00:34:43;24.60;50.50
23377;DHT22;14353;46.070;13.222;2023-05-07T00:37:09;24.60;50.50
23377;DHT22;14353;46.070;13.222;2023-05-07T00:39:35;24.60;50.50
23377;DHT22;14353;46.070;13.222;2023-05-07T00:42:01;24.60;50.50
23377;DHT22;14353;46.070;13.222;2023-05-07T00:44:28;24.60;50.50
23377;DHT22;14353;46.070;13.222;2023-05-07T00:46:56;24.60;50.50
23377;DHT22;14353;46.070;13.222;2023-05-07T00:49:25;24.60;50.50
23377;DHT22;14353;46.070;13.222;2023-05-07T00:51:54;24.60;50.50
23377;DHT22;14353;46.070;13.222;2023-05-07T00:54:20;24.60;50.50
23377;DHT22;14353;46.070;13.222;2023-05-07T00:56:47;24.60;50.50
23377;DHT22;14353;46.070;13.222;2023-05-07T00:59:13;24.60;50.50
23377;DHT22;14353;46.070;13.222;2023-05-07T01:01:38;24.60;50.50
23377;DHT22;14353;46.070;13.222;2023-05-07T01:04:04;24.60;50.50
23377;DHT22;14353;46.070;13.222;2023-05-07T01:06:31;24.60;50.50
23377;DHT22;14353;46.070;13.222;2023-05-07T01:08:57;24.60;50.50
23377;DHT22;14353;46.070;13.222;2023-05-07T01:11:24;24.60;50.60
23377;DHT22;14353;46.070;13.222;2023-05-07T01:13:51;24.60;50.50
23377;DHT22;14353;46.070;13.222;2023-05-07T01:16:17;24.60;50.50
23377;DHT22;14353;46.070;13.222;2023-05-07T01:18:42;24.60;50.50
23377;DHT22;14353;46.070;13.222;2023-05-07T01:21:08;24.60;50.50
23377;DHT22;14353;46.070;13.222;2023-05-07T01:23:36;24.60;50.50
23377;DHT22;14353;46.070;13.222;2023-05-07T01:26:02;24.60;50.50
23377;DHT22;14353;46.070;13.222;2023-05-07T01:28:28;24.60;50.50
23377;DHT22;14353;46.070;13.222;2023-05-07T01:30:56;24.60;50.50
23377;DHT22;14353;46.070;13.222;2023-05-07T01:33:24;24.60;50.50
23377;DHT22;14353;46.070;13.222;2023-05-07T01:35:52;24.60;50.50
23377;DHT22;14353;46.070;13.222;2023-05-07T01:38:19;24.60;50.50
23377;DHT22;14353;46.070;13.222;2023-05-07T01:40:45;24.60;50.50
23377;DHT22;14353;46.070;13.222;2023-05-07T01:43:12;24.60;50.50
23377;DHT22;14353;46.070;13.222;2023-05-07T01:45:38;24.60;50.50
23377;DHT22;14353;46.070;13.222;2023-05-07T01:48:04;24.60;50.50
23377;DHT22;14353;46.070;13.222;2023-05-07T01:50:30;24.60;50.50
23377;DHT22;14353;46.070;13.222;2023-05-07T01:52:57;24.60;50.50
23377;DHT22;14353;46.070;13.222;2023-05-07T01:55:22;24.60;50.50
23377;DHT22;14353;46.070;13.222;2023-05-07T01:57:49;24.60;50.50
23377;DHT22;14353;46.070;13.222;2023-05-07T02:00:15;24.60;50.50
23377;DHT22;14353;46.070;13.222;2023-05-07T02:02:41;24.60;50.50
23377;DHT22;14353;46.070;13.222;2023-05-07T02:05:07;24.60;50.50
23377;DHT22;14353;46.070;13.222;2023-05-07T02:07:32;24.60;50.50
23377;DHT22;14353;46.070;13.222;2023-05-07T02:09:58;24.50;50.50
23377;DHT22;14353;46.070;13.222;2023-05-07T02:12:24;24.50;50.50
23377;DHT22;14353;46.070;13.222;2023-05-07T02:14:49;24.60;50.60
23377;DHT22;14353;46.070;13.222;2023-05-07T02:17:15;24.50;50.50
23377;DHT22;14353;46.070;13.222;2023-05-07T02:19:41;24.50;50.50
23377;DHT22;14353;46.070;13.222;2023-05-07T02:22:07;24.50;50.50
23377;DHT22;14353;46.070;13.222;2023-05-07T02:24:33;24.50;50.50
23377;DHT22;14353;46.070;13.222;2023-05-07T02:26:58;24.50;50.50
23377;DHT22;14353;46.070;13.222;2023-05-07T02:29:24;24.60;50.50
23377;DHT22;14353;46.070;13.222;2023-05-07T02:31:50;24.50;50.50
23377;DHT22;14353;46.070;13.222;2023-05-07T02:34:19;24.50;50.50
23377;DHT22;14353;46.070;13.222;2023-05-07T02:36:44;24.60;50.50
23377;DHT22;14353;46.070;13.222;2023-05-07T02:39:11;24.50;50.50
23377;DHT22;14353;46.070;13.222;2023-05-07T02:41:37;24.50;50.50
23377;DHT22;14353;46.070;13.222;2023-05-07T02:44:03;24.50;50.50
23377;DHT22;14353;46.070;13.222;2023-05-07T02:46:29;24.50;50.50
23377;DHT22;14353;46.070;13.222;2023-05-07T02:48:55;24.50;50.50
23377;DHT22;14353;46.070;13.222;2023-05-07T02:51:22;24.50;50.50
23377;DHT22;14353;46.070;13.222;2023-05-07T02:53:47;24.50;50.50
23377;DHT22;14353;46.070;13.222;2023-05-07T02:56:13;24.50;50.50
23377;DHT22;14353;46.070;13.222;2023-05-07T02:58:39;24.50;50.50
23377;DHT22;14353;46.070;13.222;2023-05-07T03:01:08;24.50;50.50
23377;DHT22;14353;46.070;13.222;2023-05-07T03:03:34;24.50;50.50
23377;DHT22;14353;46.070;13.222;2023-05-07T03:06:00;24.50;50.50
23377;DHT22;14353;46.070;13.222;2023-05-07T03:08:26;24.50;50.50
23377;DHT22;14353;46.070;13.222;2023-05-07T03:10:52;24.50;50.50
23377;DHT22;14353;46.070;13.222;2023-05-07T03:13:18;24.50;50.50
23377;DHT22;14353;46.070;13.222;2023-05-07T03:15:43;24.40;50.50
23377;DHT22;14353;46.070;13.222;2023-05-07T03:18:09;24.50;50.60
23377;DHT22;14353;46.070;13.222;2023-05-07T03:20:35;24.40;50.50
23377;DHT22;14353;46.070;13.222;2023-05-07T03:23:02;24.50;50.60
23377;DHT22;14353;46.070;13.222;2023-05-07T03:25:28;24.50;50.60
23377;DHT22;14353;46.070;13.222;2023-05-07T03:27:55;24.50;50.50
23377;DHT22;14353;46.070;13.222;2023-05-07T03:30:21;24.50;50.50
23377;DHT22;14353;46.070;13.222;2023-05-07T03:32:47;24.40;50.50
23377;DHT22;14353;46.070;13.222;2023-05-07T03:35:12;24.40;50.50
23377;DHT22;14353;46.070;13.222;2023-05-07T03:37:38;24.40;50.50
23377;DHT22;14353;46.070;13.222;2023-05-07T03:40:05;24.50;50.50
23377;DHT22;14353;46.070;13.222;2023-05-07T03:42:31;24.40;50.50
23377;DHT22;14353;46.070;13.222;2023-05-07T03:44:57;24.50;50.60
23377;DHT22;14353;46.070;13.222;2023-05-07T03:47:22;24.50;50.50
23377;DHT22;14353;46.070;13.222;2023-05-07T03:49:48;24.40;50.50
23377;DHT22;14353;46.070;13.222;2023-05-07T03:52:14;24.40;50.50
23377;DHT22;14353;46.070;13.222;2023-05-07T03:54:40;24.40;50.60
23377;DHT22;14353;46.070;13.222;2023-05-07T03:57:06;24.40;50.50
23377;DHT22;14353;46.070;13.222;2023-05-07T03:59:32;24.40;50.50
23377;DHT22;14353;46.070;13.222;2023-05-07T04:01:58;24.40;50.60
23377;DHT22;14353;46.070;13.222;2023-05-07T04:04:24;24.40;50.50
23377;DHT22;14353;46.070;13.222;2023-05-07T04:06:49;24.40;50.50
23377;DHT22;14353;46.070;13.222;2023-05-07T04:09:15;24.40;50.50
23377;DHT22;14353;46.070;13.222;2023-05-07T04:11:41;24.40;50.50
23377;DHT22;14353;46.070;13.222;2023-05-07T04:14:06;24.40;50.50
23377;DHT22;14353;46.070;13.222;2023-05-07T04:16:32;24.40;50.50
23377;DHT22;14353;46.070;13.222;2023-05-07T04:18:58;24.50;50.50
23377;DHT22;14353;46.070;13.222;2023-05-07T04:21:23;24.40;50.50
23377;DHT22;14353;46.070;13.222;2023-05-07T04:23:49;24.40;50.50
23377;DHT22;14353;46.070;13.222;2023-05-07T04:26:15;24.40;50.40
23377;DHT22;14353;46.070;13.222;2023-05-07T04:28:42;24.40;50.40
23377;DHT22;14353;46.070;13.222;2023-05-07T04:31:08;24.40;50.30
23377;DHT22;14353;46.070;13.222;2023-05-07T04:33:34;24.50;50.40
23377;DHT22;14353;46.070;13.222;2023-05-07T04:36:03;24.50;50.30
23377;DHT22;14353;46.070;13.222;2023-05-07T04:38:30;24.40;50.30
23377;DHT22;14353;46.070;13.222;2023-05-07T04:40:57;24.50;50.40
23377;DHT22;14353;46.070;13.222;2023-05-07T04:43:23;24.50;50.30
23377;DHT22;14353;46.070;13.222;2023-05-07T04:45:50;24.50;50.20
23377;DHT22;14353;46.070;13.222;2023-05-07T04:48:16;24.50;50.30
23377;DHT22;14353;46.070;13.222;2023-05-07T04:50:46;24.50;50.20
23377;DHT22;14353;46.070;13.222;2023-05-07T04:53:12;24.50;50.20
23377;DHT22;14353;46.070;13.222;2023-05-07T04:55:38;24.50;50.20
23377;DHT22;14353;46.070;13.222;2023-05-07T04:58:03;24.50;50.20
23377;DHT22;14353;46.070;13.222;2023-05-07T05:00:30;24.50;50.20
23377;DHT22;14353;46.070;13.222;2023-05-07T05:02:56;24.50;50.20
23377;DHT22;14353;46.070;13.222;2023-05-07T05:05:22;24.50;50.10
23377;DHT22;14353;46.070;13.222;2023-05-07T05:07:47;24.50;50.10
23377;DHT22;14353;46.070;13.222;2023-05-07T05:10:13;24.60;50.00
23377;DHT22;14353;46.070;13.222;2023-05-07T05:12:39;24.60;50.00
23377;DHT22;14353;46.070;13.222;2023-05-07T05:15:05;24.60;49.90
23377;DHT22;14353;46.070;13.222;2023-05-07T05:17:31;24.60;49.80
23377;DHT22;14353;46.070;13.222;2023-05-07T05:19:57;24.70;49.80
23377;DHT22;14353;46.070;13.222;2023-05-07T05:22:22;24.70;49.70
23377;DHT22;14353;46.070;13.222;2023-05-07T05:24:48;24.70;49.70
23377;DHT22;14353;46.070;13.222;2023-05-07T05:27:14;24.70;49.60
23377;DHT22;14353;46.070;13.222;2023-05-07T05:29:39;24.70;49.60
23377;DHT22;14353;46.070;13.222;2023-05-07T05:32:05;24.80;49.60
23377;DHT22;14353;46.070;13.222;2023-05-07T05:34:31;24.70;49.60
23377;DHT22;14353;46.070;13.222;2023-05-07T05:36:59;24.70;49.50
23377;DHT22;14353;46.070;13.222;2023-05-07T05:39:25;24.70;49.50
23377;DHT22;14353;46.070;13.222;2023-05-07T05:41:50;24.70;49.50
23377;DHT22;14353;46.070;13.222;2023-05-07T05:44:16;24.70;49.50
23377;DHT22;14353;46.070;13.222;2023-05-07T05:46:42;24.80;49.60
23377;DHT22;14353;46.070;13.222;2023-05-07T05:49:07;24.70;49.50
23377;DHT22;14353;46.070;13.222;2023-05-07T05:51:33;24.80;49.50
23377;DHT22;14353;46.070;13.222;2023-05-07T05:53:59;24.80;49.50
23377;DHT22;14353;46.070;13.222;2023-05-07T05:56:25;24.80;49.50
23377;DHT22;14353;46.070;13.222;2023-05-07T05:58:51;24.80;49.40
23377;DHT22;14353;46.070;13.222;2023-05-07T06:01:17;24.80;49.40
23377;DHT22;14353;46.070;13.222;2023-05-07T06:03:44;24.80;49.50
23377;DHT22;14353;46.070;13.222;2023-05-07T06:06:09;24.80;49.50
23377;DHT22;14353;46.070;13.222;2023-05-07T06:08:35;24.80;49.40
23377;DHT22;14353;46.070;13.222;2023-05-07T06:11:01;24.80;49.40
23377;DHT22;14353;46.070;13.222;2023-05-07T06:13:28;24.80;49.40
23377;DHT22;14353;46.070;13.222;2023-05-07T06:15:53;24.80;49.40
23377;DHT22;14353;46.070;13.222;2023-05-07T06:18:19;24.80;49.50
23377;DHT22;14353;46.070;13.222;2023-05-07T06:20:45;24.80;49.40
23377;DHT22;14353;46.070;13.222;2023-05-07T06:23:10;24.80;49.40
23377;DHT22;14353;46.070;13.222;2023-05-07T06:25:36;24.80;49.50
23377;DHT22;14353;46.070;13.222;2023-05-07T06:28:02;24.80;49.40
23377;DHT22;14353;46.070;13.222;2023-05-07T06:30:28;24.80;49.40
23377;DHT22;14353;46.070;13.222;2023-05-07T06:32:53;24.80;49.50
23377;DHT22;14353;46.070;13.222;2023-05-07T06:35:19;24.80;49.50
23377;DHT22;14353;46.070;13.222;2023-05-07T06:37:45;24.80;49.50
23377;DHT22;14353;46.070;13.222;2023-05-07T06:40:11;24.80;49.40
23377;DHT22;14353;46.070;13.222;2023-05-07T06:42:37;24.80;50.00
23377;DHT22;14353;46.070;13.222;2023-05-07T06:45:03;24.80;49.20
23377;DHT22;14353;46.070;13.222;2023-05-07T06:47:29;24.80;49.20
23377;DHT22;14353;46.070;13.222;2023-05-07T06:49:55;24.90;49.20
23377;DHT22;14353;46.070;13.222;2023-05-07T06:52:21;24.90;49.20
23377;DHT22;14353;46.070;13.222;2023-05-07T06:54:46;24.90;49.20
23377;DHT22;14353;46.070;13.222;2023-05-07T06:57:12;24.90;49.20
23377;DHT22;14353;46.070;13.222;2023-05-07T06:59:38;24.90;49.20
23377;DHT22;14353;46.070;13.222;2023-05-07T07:02:03;24.90;49.20
23377;DHT22;14353;46.070;13.222;2023-05-07T07:04:29;24.90;49.20
23377;DHT22;14353;46.070;13.222;2023-05-07T07:06:55;24.90;49.20
23377;DHT22;14353;46.070;13.222;2023-05-07T07:09:22;24.90;49.10
23377;DHT22;14353;46.070;13.222;2023-05-07T07:11:50;24.90;49.10
23377;DHT22;14353;46.070;13.222;2023-05-07T07:14:16;24.90;49.80
23377;DHT22;14353;46.070;13.222;2023-05-07T07:16:42;25.00;49.10
23377;DHT22;14353;46.070;13.222;2023-05-07T07:19:08;25.00;49.00
23377;DHT22;14353;46.070;13.222;2023-05-07T07:21:33;25.00;48.90
23377;DHT22;14353;46.070;13.222;2023-05-07T07:23:59;25.00;48.90
23377;DHT22;14353;46.070;13.222;2023-05-07T07:26:25;25.00;48.90
23377;DHT22;14353;46.070;13.222;2023-05-07T07:28:51;25.00;48.90
23377;DHT22;14353;46.070;13.222;2023-05-07T07:31:17;25.00;48.80
23377;DHT22;14353;46.070;13.222;2023-05-07T07:33:42;25.00;48.80
23377;DHT22;14353;46.070;13.222;2023-05-07T07:36:08;25.00;48.80
23377;DHT22;14353;46.070;13.222;2023-05-07T07:38:34;25.10;48.80
23377;DHT22;14353;46.070;13.222;2023-05-07T07:41:00;25.00;48.80
23377;DHT22;14353;46.070;13.222;2023-05-07T07:43:27;25.00;48.80
23377;DHT22;14353;46.070;13.222;2023-05-07T07:45:53;25.10;48.80
23377;DHT22;14353;46.070;13.222;2023-05-07T07:48:18;25.10;48.70
23377;DHT22;14353;46.070;13.222;2023-05-07T07:50:44;25.10;48.70
23377;DHT22;14353;46.070;13.222;2023-05-07T07:53:10;25.10;48.70
23377;DHT22;14353;46.070;13.222;2023-05-07T07:55:39;25.10;48.70
23377;DHT22;14353;46.070;13.222;2023-05-07T07:58:05;25.10;48.60
23377;DHT22;14353;46.070;13.222;2023-05-07T08:00:31;25.10;48.60
23377;DHT22;14353;46.070;13.222;2023-05-07T08:02:56;25.20;48.60
23377;DHT22;14353;46.070;13.222;2023-05-07T08:05:23;25.20;48.60
23377;DHT22;14353;46.070;13.222;2023-05-07T08:07:48;25.20;48.60
23377;DHT22;14353;46.070;13.222;2023-05-07T08:10:19;25.20;48.50
23377;DHT22;14353;46.070;13.222;2023-05-07T08:12:48;25.20;48.50
23377;DHT22;14353;46.070;13.222;2023-05-07T08:15:14;25.20;48.50
23377;DHT22;14353;46.070;13.222;2023-05-07T08:17:40;25.20;48.50
23377;DHT22;14353;46.070;13.222;2023-05-07T08:20:06;25.20;48.40
23377;DHT22;14353;46.070;13.222;2023-05-07T08:22:34;25.20;48.40
23377;DHT22;14353;46.070;13.222;2023-05-07T08:25:00;25.30;48.40
23377;DHT22;14353;46.070;13.222;2023-05-07T08:27:26;25.30;48.40
23377;DHT22;14353;46.070;13.222;2023-05-07T08:29:52;25.30;48.40
23377;DHT22;14353;46.070;13.222;2023-05-07T08:32:17;25.30;48.30
23377;DHT22;14353;46.070;13.222;2023-05-07T08:34:46;25.30;48.30
23377;DHT22;14353;46.070;13.222;2023-05-07T08:37:12;25.40;48.30
23377;DHT22;14353;46.070;13.222;2023-05-07T08:39:38;25.40;48.30
23377;DHT22;14353;46.070;13.222;2023-05-07T08:42:04;25.40;48.20
23377;DHT22;14353;46.070;13.222;2023-05-07T08:44:34;25.40;48.10
23377;DHT22;14353;46.070;13.222;2023-05-07T08:47:02;25.50;48.10
23377;DHT22;14353;46.070;13.222;2023-05-07T08:49:31;25.50;48.00
23377;DHT22;14353;46.070;13.222;2023-05-07T08:51:56;25.50;48.00
23377;DHT22;14353;46.070;13.222;2023-05-07T08:54:23;25.50;48.00
23377;DHT22;14353;46.070;13.222;2023-05-07T08:56:49;25.50;47.90
23377;DHT22;14353;46.070;13.222;2023-05-07T08:59:15;25.60;47.90
23377;DHT22;14353;46.070;13.222;2023-05-07T09:01:41;25.60;47.90
23377;DHT22;14353;46.070;13.222;2023-05-07T09:04:06;25.60;47.70
23377;DHT22;14353;46.070;13.222;2023-05-07T09:06:33;25.60;47.70
23377;DHT22;14353;46.070;13.222;2023-05-07T09:08:59;25.60;47.60
23377;DHT22;14353;46.070;13.222;2023-05-07T09:11:26;25.70;47.70
23377;DHT22;14353;46.070;13.222;2023-05-07T09:13:56;25.70;47.60
23377;DHT22;14353;46.070;13.222;2023-05-07T09:16:24;25.70;47.60
23377;DHT22;14353;46.070;13.222;2023-05-07T09:18:54;25.70;47.60
23377;DHT22;14353;46.070;13.222;2023-05-07T09:21:20;25.70;47.50
23377;DHT22;14353;46.070;13.222;2023-05-07T09:23:50;25.70;47.40
23377;DHT22;14353;46.070;13.222;2023-05-07T09:26:16;25.80;48.10
23377;DHT22;14353;46.070;13.222;2023-05-07T09:28:42;25.80;47.40
23377;DHT22;14353;46.070;13.222;2023-05-07T09:31:14;25.80;47.40
23377;DHT22;14353;46.070;13.222;2023-05-07T09:33:40;25.80;47.30
23377;DHT22;14353;46.070;13.222;2023-05-07T09:36:07;25.80;47.30
23377;DHT22;14353;46.070;13.222;2023-05-07T09:38:35;25.80;47.30
23377;DHT22;14353;46.070;13.222;2023-05-07T09:41:08;25.80;47.30
23377;DHT22;14353;46.070;13.222;2023-05-07T09:43:35;25.90;47.30
23377;DHT22;14353;46.070;13.222;2023-05-07T09:46:12;25.90;47.30
23377;DHT22;14353;46.070;13.222;2023-05-07T09:48:40;25.90;47.20
23377;DHT22;14353;46.070;13.222;2023-05-07T09:53:45;26.00;47.20
23377;DHT22;14353;46.070;13.222;2023-05-07T09:56:13;26.00;47.70
23377;DHT22;14353;46.070;13.222;2023-05-07T09:58:40;26.00;46.90
23377;DHT22;14353;46.070;13.222;2023-05-07T10:01:07;26.10;46.90
23377;DHT22;14353;46.070;13.222;2023-05-07T10:03:33;26.10;46.80
23377;DHT22;14353;46.070;13.222;2023-05-07T10:06:01;26.20;46.60
23377;DHT22;14353;46.070;13.222;2023-05-07T10:08:29;26.30;46.50
23377;DHT22;14353;46.070;13.222;2023-05-07T10:10:55;26.30;46.40
23377;DHT22;14353;46.070;13.222;2023-05-07T10:13:21;26.40;46.40
23377;DHT22;14353;46.070;13.222;2023-05-07T10:15:47;26.40;46.30
23377;DHT22;14353;46.070;13.222;2023-05-07T10:18:14;26.40;46.20
23377;DHT22;14353;46.070;13.222;2023-05-07T10:20:41;26.40;46.20
23377;DHT22;14353;46.070;13.222;2023-05-07T10:23:10;26.50;46.10
23377;DHT22;14353;46.070;13.222;2023-05-07T10:25:38;26.60;46.00
23377;DHT22;14353;46.070;13.222;2023-05-07T10:28:06;26.60;45.90
23377;DHT22;14353;46.070;13.222;2023-05-07T10:33:35;26.70;45.70
23377;DHT22;14353;46.070;13.222;2023-05-07T10:36:01;26.70;45.70
23377;DHT22;14353;46.070;13.222;2023-05-07T10:38:30;26.70;45.70
23377;DHT22;14353;46.070;13.222;2023-05-07T10:40:56;26.70;45.60
23377;DHT22;14353;46.070;13.222;2023-05-07T10:43:22;26.70;45.60
23377;DHT22;14353;46.070;13.222;2023-05-07T10:46:11;26.80;45.50
23377;DHT22;14353;46.070;13.222;2023-05-07T10:51:37;26.80;45.40
23377;DHT22;14353;46.070;13.222;2023-05-07T10:56:41;26.90;45.40
23377;DHT22;14353;46.070;13.222;2023-05-07T11:04:21;26.90;45.30
23377;DHT22;14353;46.070;13.222;2023-05-07T11:15:15;27.00;45.30
23377;DHT22;14353;46.070;13.222;2023-05-07T11:18:01;27.00;45.20
23377;DHT22;14353;46.070;13.222;2023-05-07T11:20:51;27.00;45.10
23377;DHT22;14353;46.070;13.222;2023-05-07T11:26:05;27.10;45.10
23377;DHT22;14353;46.070;13.222;2023-05-07T11:28:45;27.10;45.00
23377;DHT22;14353;46.070;13.222;2023-05-07T11:31:10;27.10;45.00
23377;DHT22;14353;46.070;13.222;2023-05-07T11:33:38;27.20;44.90
23377;DHT22;14353;46.070;13.222;2023-05-07T11:36:04;27.20;44.90
23377;DHT22;14353;46.070;13.222;2023-05-07T11:38:34;27.30;44.90
23377;DHT22;14353;46.070;13.222;2023-05-07T11:41:00;27.20;44.80
23377;DHT22;14353;46.070;13.222;2023-05-07T11:43:26;27.30;44.80
23377;DHT22;14353;46.070;13.222;2023-05-07T11:45:52;27.20;44.80
23377;DHT22;14353;46.070;13.222;2023-05-07T11:48:18;27.20;44.90
23377;DHT22;14353;46.070;13.222;2023-05-07T11:51:02;27.20;45.00
23377;DHT22;14353;46.070;13.222;2023-05-07T11:53:36;27.10;45.00
23377;DHT22;14353;46.070;13.222;2023-05-07T11:56:12;27.10;45.10
23377;DHT22;14353;46.070;13.222;2023-05-07T11:58:40;27.00;45.10
23377;DHT22;14353;46.070;13.222;2023-05-07T12:01:10;27.00;45.30
23377;DHT22;14353;46.070;13.222;2023-05-07T12:03:36;26.90;45.30
23377;DHT22;14353;46.070;13.222;2023-05-07T12:06:08;26.90;45.40
23377;DHT22;14353;46.070;13.222;2023-05-07T12:08:37;26.90;45.50
23377;DHT22;14353;46.070;13.222;2023-05-07T12:11:03;26.80;45.50
23377;DHT22;14353;46.070;13.222;2023-05-07T12:13:35;26.80;45.70
23377;DHT22;14353;46.070;13.222;2023-05-07T12:16:01;26.70;45.70
23377;DHT22;14353;46.070;13.222;2023-05-07T12:18:28;26.70;45.80
23377;DHT22;14353;46.070;13.222;2023-05-07T12:20:55;26.70;45.90
23377;DHT22;14353;46.070;13.222;2023-05-07T12:23:22;26.70;45.90
23377;DHT22;14353;46.070;13.222;2023-05-07T12:25:48;26.70;46.00
23377;DHT22;14353;46.070;13.222;2023-05-07T12:28:17;26.70;46.10
23377;DHT22;14353;46.070;13.222;2023-05-07T12:30:45;26.60;46.00
23377;DHT22;14353;46.070;13.222;2023-05-07T12:33:11;26.60;46.10
23377;DHT22;14353;46.070;13.222;2023-05-07T12:35:40;26.50;46.10
23377;DHT22;14353;46.070;13.222;2023-05-07T12:38:12;26.60;46.20
23377;DHT22;14353;46.070;13.222;2023-05-07T12:40:40;26.50;46.20
23377;DHT22;14353;46.070;13.222;2023-05-07T12:43:06;26.50;46.30
23377;DHT22;14353;46.070;13.222;2023-05-07T12:45:37;26.50;46.40
23377;DHT22;14353;46.070;13.222;2023-05-07T12:48:04;26.50;46.30
23377;DHT22;14353;46.070;13.222;2023-05-07T12:50:33;26.50;46.30
23377;DHT22;14353;46.070;13.222;2023-05-07T12:52:59;26.60;46.30
23377;DHT22;14353;46.070;13.222;2023-05-07T12:55:25;26.60;46.20
23377;DHT22;14353;46.070;13.222;2023-05-07T12:57:53;26.60;46.20
23377;DHT22;14353;46.070;13.222;2023-05-07T13:00:36;26.70;46.10
23377;DHT22;14353;46.070;13.222;2023-05-07T13:03:02;26.70;45.90
23377;DHT22;14353;46.070;13.222;2023-05-07T13:05:28;26.80;45.90
23377;DHT22;14353;46.070;13.222;2023-05-07T13:07:54;26.90;45.80
23377;DHT22;14353;46.070;13.222;2023-05-07T13:10:21;26.90;45.70
23377;DHT22;14353;46.070;13.222;2023-05-07T13:12:46;27.00;45.60
23377;DHT22;14353;46.070;13.222;2023-05-07T13:15:12;27.10;45.50
23377;DHT22;14353;46.070;13.222;2023-05-07T13:17:38;27.10;45.40
23377;DHT22;14353;46.070;13.222;2023-05-07T13:20:04;27.20;45.30
23377;DHT22;14353;46.070;13.222;2023-05-07T13:22:31;27.20;45.20
23377;DHT22;14353;46.070;13.222;2023-05-07T13:24:57;27.20;45.20
23377;DHT22;14353;46.070;13.222;2023-05-07T13:27:22;27.20;45.10
23377;DHT22;14353;46.070;13.222;2023-05-07T13:29:48;27.30;45.10
23377;DHT22;14353;46.070;13.222;2023-05-07T13:32:14;27.30;45.10
23377;DHT22;14353;46.070;13.222;2023-05-07T13:34:39;27.30;45.00
23377;DHT22;14353;46.070;13.222;2023-05-07T13:37:06;27.40;45.00
23377;DHT22;14353;46.070;13.222;2023-05-07T13:39:33;27.40;45.00
23377;DHT22;14353;46.070;13.222;2023-05-07T13:41:59;27.30;45.00
23377;DHT22;14353;46.070;13.222;2023-05-07T13:44:24;27.30;45.00
23377;DHT22;14353;46.070;13.222;2023-05-07T13:46:50;27.30;45.00
23377;DHT22;14353;46.070;13.222;2023-05-07T13:49:16;27.30;45.00
23377;DHT22;14353;46.070;13.222;2023-05-07T13:51:42;27.30;45.00
23377;DHT22;14353;46.070;13.222;2023-05-07T13:54:07;27.30;45.10
23377;DHT22;14353;46.070;13.222;2023-05-07T13:56:33;27.30;45.10
23377;DHT22;14353;46.070;13.222;2023-05-07T13:58:59;27.30;45.20
23377;DHT22;14353;46.070;13.222;2023-05-07T14:01:25;27.30;45.20
23377;DHT22;14353;46.070;13.222;2023-05-07T14:03:51;27.30;45.30
23377;DHT22;14353;46.070;13.222;2023-05-07T14:06:16;27.30;45.30
23377;DHT22;14353;46.070;13.222;2023-05-07T14:08:42;27.30;45.30
23377;DHT22;14353;46.070;13.222;2023-05-07T14:11:07;27.30;45.30
23377;DHT22;14353;46.070;13.222;2023-05-07T14:13:33;27.20;45.30
23377;DHT22;14353;46.070;13.222;2023-05-07T14:15:59;27.20;45.30
23377;DHT22;14353;46.070;13.222;2023-05-07T14:18:26;27.20;45.30
23377;DHT22;14353;46.070;13.222;2023-05-07T14:20:52;27.20;45.30
23377;DHT22;14353;46.070;13.222;2023-05-07T14:23:17;27.20;45.40
23377;DHT22;14353;46.070;13.222;2023-05-07T14:25:45;27.20;45.40
23377;DHT22;14353;46.070;13.222;2023-05-07T14:28:13;27.20;45.50
23377;DHT22;14353;46.070;13.222;2023-05-07T14:30:39;27.20;45.50
23377;DHT22;14353;46.070;13.222;2023-05-07T14:33:04;27.10;45.50
23377;DHT22;14353;46.070;13.222;2023-05-07T14:35:30;27.10;45.70
23377;DHT22;14353;46.070;13.222;2023-05-07T14:37:56;27.10;45.70
23377;DHT22;14353;46.070;13.222;2023-05-07T14:40:21;27.00;45.80
23377;DHT22;14353;46.070;13.222;2023-05-07T14:42:47;27.00;45.90
23377;DHT22;14353;46.070;13.222;2023-05-07T14:45:13;26.90;46.00
23377;DHT22;14353;46.070;13.222;2023-05-07T14:47:38;26.90;46.00
23377;DHT22;14353;46.070;13.222;2023-05-07T14:50:04;26.90;46.10
23377;DHT22;14353;46.070;13.222;2023-05-07T14:52:30;26.80;46.10
23377;DHT22;14353;46.070;13.222;2023-05-07T14:54:56;26.90;46.10
23377;DHT22;14353;46.070;13.222;2023-05-07T14:57:22;26.90;46.10
23377;DHT22;14353;46.070;13.222;2023-05-07T14:59:47;26.80;46.10
23377;DHT22;14353;46.070;13.222;2023-05-07T15:02:13;26.90;46.10
23377;DHT22;14353;46.070;13.222;2023-05-07T15:04:39;26.80;46.10
23377;DHT22;14353;46.070;13.222;2023-05-07T15:07:14;26.80;46.20
23377;DHT22;14353;46.070;13.222;2023-05-07T15:09:44;26.80;46.20
23377;DHT22;14353;46.070;13.222;2023-05-07T15:12:10;26.80;46.30
23377;DHT22;14353;46.070;13.222;2023-05-07T15:14:37;26.80;46.30
23377;DHT22;14353;46.070;13.222;2023-05-07T15:17:03;26.70;46.40
23377;DHT22;14353;46.070;13.222;2023-05-07T15:19:29;26.70;46.40
23377;DHT22;14353;46.070;13.222;2023-05-07T15:21:57;26.70;46.40
23377;DHT22;14353;46.070;13.222;2023-05-07T15:24:23;26.70;46.50
23377;DHT22;14353;46.070;13.222;2023-05-07T15:26:51;26.70;46.50
23377;DHT22;14353;46.070;13.222;2023-05-07T15:29:17;26.70;46.60
23377;DHT22;14353;46.070;13.222;2023-05-07T15:31:43;26.70;47.20
23377;DHT22;14353;46.070;13.222;2023-05-07T15:34:08;26.70;46.60
23377;DHT22;14353;46.070;13.222;2023-05-07T15:36:34;26.70;46.60
23377;DHT22;14353;46.070;13.222;2023-05-07T15:39:00;26.70;46.60